createdAt,value
2017-08-17T00:01:34.179Z,21.00
2017-08-17T00:04:06.795Z,20.86
2017-08-17T00:06:34.201Z,21.05
2017-08-17T00:09:00.793Z,21.20
2017-08-17T00:11:27.162Z,21.27
2017-08-17T00:13:58.979Z,21.16
2017-08-17T00:16:32.339Z,21.10
2017-08-17T00:18:59.767Z,21.08
2017-08-17T00:21:31.763Z,20.83
2017-08-17T00:23:59.027Z,21.06
2017-08-17T00:26:25.591Z,21.12
2017-08-17T00:28:53.277Z,20.98
2017-08-17T00:31:20.624Z,20.98
2017-08-17T00:33:47.479Z,20.93
2017-08-17T00:36:14.456Z,20.48
2017-08-17T00:38:41.227Z,20.54
2017-08-17T00:41:13.001Z,20.48
2017-08-17T00:43:39.553Z,20.61
2017-08-17T00:48:32.890Z,20.66
2017-08-17T00:50:59.401Z,20.31
2017-08-17T00:53:25.923Z,20.38
2017-08-17T00:55:53.438Z,20.30
2017-08-17T00:58:20.080Z,20.45
2017-08-17T01:00:46.953Z,20.14
2017-08-17T01:03:13.659Z,20.56
2017-08-17T01:05:40.887Z,20.65
2017-08-17T01:08:12.827Z,20.84
2017-08-17T01:10:44.925Z,20.82
2017-08-17T01:13:11.632Z,20.75
2017-08-17T01:15:43.869Z,20.70
2017-08-17T01:18:10.571Z,20.66
2017-08-17T01:20:40.326Z,20.68
2017-08-17T01:23:09.843Z,20.62
2017-08-17T01:25:41.765Z,20.53
2017-08-17T01:28:08.424Z,20.39
2017-08-17T01:30:40.397Z,20.03
2017-08-17T01:33:07.879Z,20.10
2017-08-17T01:35:34.447Z,20.15
2017-08-17T01:38:01.396Z,19.97
2017-08-17T01:40:27.886Z,20.02
2017-08-17T01:42:59.703Z,20.05
2017-08-17T01:45:26.561Z,19.99
2017-08-17T01:47:53.045Z,20.17
2017-08-17T01:50:19.892Z,20.34
2017-08-17T01:52:51.617Z,20.37
2017-08-17T01:55:18.610Z,20.36
2017-08-17T01:57:45.576Z,20.12
2017-08-17T02:00:12.105Z,20.04
2017-08-17T02:02:38.518Z,20.17
2017-08-17T02:05:10.095Z,20.33
2017-08-17T02:07:36.602Z,20.25
2017-08-17T02:10:08.943Z,19.98
2017-08-17T02:12:38.508Z,19.82
2017-08-17T02:15:05.745Z,19.71
2017-08-17T02:17:32.444Z,19.56
2017-08-17T02:19:58.985Z,19.75
2017-08-17T02:22:25.452Z,19.97
2017-08-17T02:24:52.935Z,20.03
2017-08-17T02:27:20.722Z,19.74
2017-08-17T02:29:47.213Z,19.88
2017-08-17T02:32:13.986Z,19.92
2017-08-17T02:34:45.708Z,20.06
2017-08-17T02:37:12.154Z,20.10
2017-08-17T02:39:38.571Z,20.11
2017-08-17T02:42:04.957Z,20.01
2017-08-17T02:44:31.339Z,19.97
2017-08-17T02:46:59.487Z,19.98
2017-08-17T02:49:26.261Z,19.95
2017-08-17T02:51:52.832Z,19.95
2017-08-17T02:54:19.247Z,19.91
2017-08-17T02:56:52.172Z,20.00
2017-08-17T02:59:18.663Z,19.90
2017-08-17T03:01:46.100Z,19.75
2017-08-17T03:04:12.810Z,19.88
2017-08-17T03:06:39.505Z,19.85
2017-08-17T03:09:06.960Z,19.66
2017-08-17T03:11:33.428Z,19.67
2017-08-17T03:14:00.195Z,19.92
2017-08-17T03:16:26.763Z,19.66
2017-08-17T03:18:54.733Z,19.38
2017-08-17T03:21:21.503Z,19.51
2017-08-17T03:23:48.612Z,19.36
2017-08-17T03:26:16.069Z,19.56
2017-08-17T03:28:42.531Z,19.34
2017-08-17T03:31:08.986Z,19.57
2017-08-17T03:33:36.677Z,19.47
2017-08-17T03:36:09.216Z,19.44
2017-08-17T03:38:39.164Z,19.56
2017-08-17T03:41:05.767Z,19.54
2017-08-17T03:43:32.255Z,19.61
2017-08-17T03:45:58.709Z,19.61
2017-08-17T03:48:25.073Z,19.31
2017-08-17T03:50:51.535Z,19.58
2017-08-17T03:53:18.121Z,19.49
2017-08-17T03:55:49.858Z,19.56
2017-08-17T03:58:16.270Z,19.52
2017-08-17T04:00:42.966Z,19.63
2017-08-17T04:03:09.497Z,19.60
2017-08-17T04:05:41.441Z,19.55
2017-08-17T04:08:08.211Z,19.43
2017-08-17T04:10:34.625Z,19.51
2017-08-17T04:13:01.017Z,19.42
2017-08-17T04:15:27.503Z,19.52
2017-08-17T04:17:57.114Z,19.58
2017-08-17T04:20:28.718Z,19.65
2017-08-17T04:23:01.462Z,19.63
2017-08-17T04:25:28.409Z,19.62
2017-08-17T04:27:54.895Z,19.58
2017-08-17T04:30:21.407Z,19.52
2017-08-17T04:32:47.884Z,19.51
2017-08-17T04:35:15.502Z,19.23
2017-08-17T04:37:45.832Z,18.85
2017-08-17T04:40:13.708Z,19.02
2017-08-17T04:42:40.395Z,19.14
2017-08-17T04:45:06.932Z,19.37
2017-08-17T04:47:33.606Z,19.42
2017-08-17T04:50:00.052Z,19.40
2017-08-17T04:52:26.607Z,18.92
2017-08-17T04:54:53.203Z,19.09
2017-08-17T04:57:38.041Z,19.12
2017-08-17T05:00:04.721Z,19.22
2017-08-17T05:02:31.174Z,19.27
2017-08-17T05:04:57.677Z,19.26
2017-08-17T05:07:24.462Z,19.05
2017-08-17T05:09:51.083Z,19.29
2017-08-17T05:12:17.881Z,19.40
2017-08-17T05:14:44.358Z,19.39
2017-08-17T05:17:10.765Z,19.52
2017-08-17T05:19:42.190Z,19.43
2017-08-17T05:22:14.218Z,19.21
2017-08-17T05:24:40.899Z,19.13
2017-08-17T05:27:07.409Z,19.26
2017-08-17T05:29:33.945Z,19.23
2017-08-17T05:32:00.751Z,19.34
2017-08-17T05:34:27.573Z,19.18
2017-08-17T05:36:54.272Z,19.21
2017-08-17T05:39:27.952Z,19.24
2017-08-17T05:42:01.866Z,19.36
2017-08-17T05:44:30.291Z,19.51
2017-08-17T05:46:57.816Z,19.57
2017-08-17T05:49:25.140Z,19.57
2017-08-17T05:51:51.661Z,19.62
2017-08-17T05:54:19.169Z,19.63
2017-08-17T05:56:47.361Z,19.64
2017-08-17T05:59:13.850Z,19.64
2017-08-17T06:01:40.337Z,19.63
2017-08-17T06:04:07.778Z,19.73
2017-08-17T06:06:34.152Z,19.75
2017-08-17T06:09:00.649Z,19.85
2017-08-17T06:11:28.034Z,19.92
2017-08-17T06:13:54.472Z,19.91
2017-08-17T06:16:26.043Z,19.86
2017-08-17T06:18:52.625Z,19.95
2017-08-17T06:21:19.962Z,19.90
2017-08-17T06:23:46.733Z,20.04
2017-08-17T06:26:14.484Z,20.13
2017-08-17T06:28:41.135Z,20.10
2017-08-17T06:31:08.656Z,20.12
2017-08-17T06:33:42.217Z,20.11
2017-08-17T06:36:08.600Z,20.13
2017-08-17T06:38:35.548Z,20.19
2017-08-17T06:41:01.960Z,20.19
2017-08-17T06:43:33.406Z,20.20
2017-08-17T06:46:00.236Z,20.27
2017-08-17T06:48:26.715Z,20.25
2017-08-17T06:50:58.794Z,20.30
2017-08-17T06:53:31.169Z,20.43
2017-08-17T06:55:57.982Z,20.53
2017-08-17T06:58:29.627Z,20.53
2017-08-17T07:00:56.334Z,20.58
2017-08-17T07:03:29.205Z,20.70
2017-08-17T07:06:01.055Z,20.72
2017-08-17T07:08:27.670Z,20.74
2017-08-17T07:10:55.154Z,20.81
2017-08-17T07:13:26.991Z,20.86
2017-08-17T07:15:53.397Z,20.95
2017-08-17T07:18:19.784Z,20.92
2017-08-17T07:20:47.023Z,21.00
2017-08-17T07:23:13.426Z,20.96
2017-08-17T07:25:45.261Z,20.93
2017-08-17T07:28:12.547Z,20.98
2017-08-17T07:30:39.090Z,21.02
2017-08-17T07:33:05.794Z,21.03
2017-08-17T07:35:33.589Z,21.14
2017-08-17T07:38:00.527Z,21.08
2017-08-17T07:40:32.417Z,21.13
2017-08-17T07:42:59.716Z,21.11
2017-08-17T07:45:26.206Z,21.17
2017-08-17T07:47:53.636Z,21.22
2017-08-17T07:50:20.301Z,21.21
2017-08-17T07:52:47.090Z,21.23
2017-08-17T07:55:13.465Z,21.23
2017-08-17T07:57:41.100Z,21.19
2017-08-17T08:00:07.849Z,21.23
2017-08-17T08:02:34.241Z,21.25
2017-08-17T08:05:00.732Z,21.28
2017-08-17T08:07:32.518Z,21.31
2017-08-17T08:09:59.375Z,21.35
2017-08-17T08:12:26.015Z,21.37
2017-08-17T08:14:52.579Z,21.44
2017-08-17T08:17:19.309Z,21.51
2017-08-17T08:19:49.545Z,21.60
2017-08-17T08:22:20.147Z,21.76
2017-08-17T08:24:47.572Z,21.91
2017-08-17T08:27:14.903Z,22.00
2017-08-17T08:29:41.407Z,22.10
2017-08-17T08:32:07.820Z,22.23
2017-08-17T08:34:39.965Z,22.34
2017-08-17T08:37:06.430Z,22.32
2017-08-17T08:39:33.035Z,22.46
2017-08-17T08:41:59.768Z,22.41
2017-08-17T08:44:26.470Z,22.45
2017-08-17T08:46:52.831Z,22.51
2017-08-17T08:49:20.326Z,22.52
2017-08-17T08:51:47.267Z,22.46
2017-08-17T08:54:16.895Z,22.53
2017-08-17T08:56:43.888Z,22.66
2017-08-17T08:59:15.442Z,22.73
2017-08-17T09:01:47.078Z,22.81
2017-08-17T09:04:13.798Z,22.79
2017-08-17T09:06:40.990Z,22.79
2017-08-17T09:09:07.461Z,22.88
2017-08-17T09:11:33.869Z,22.84
2017-08-17T09:14:00.930Z,23.00
2017-08-17T09:16:27.775Z,22.99
2017-08-17T09:18:54.244Z,23.01
2017-08-17T09:21:20.733Z,23.06
2017-08-17T09:23:47.273Z,23.09
2017-08-17T09:26:17.743Z,23.17
2017-08-17T09:28:44.417Z,23.18
2017-08-17T09:31:10.986Z,23.16
2017-08-17T09:33:37.490Z,23.13
2017-08-17T09:36:10.735Z,23.17
2017-08-17T09:38:37.164Z,23.30
2017-08-17T09:41:06.729Z,23.23
2017-08-17T09:43:33.566Z,23.23
2017-08-17T09:46:00.055Z,23.28
2017-08-17T09:48:26.479Z,23.34
2017-08-17T09:50:53.341Z,23.35
2017-08-17T09:53:19.726Z,23.39
2017-08-17T09:55:46.861Z,23.46
2017-08-17T09:58:13.337Z,23.53
2017-08-17T10:00:40.159Z,23.47
2017-08-17T10:03:06.526Z,23.51
2017-08-17T10:05:38.221Z,23.51
2017-08-17T10:08:04.768Z,23.44
2017-08-17T10:10:32.311Z,23.60
2017-08-17T10:12:59.299Z,23.56
2017-08-17T10:15:25.881Z,23.56
2017-08-17T10:17:52.631Z,23.64
2017-08-17T10:20:19.673Z,23.75
2017-08-17T10:22:51.919Z,23.78
2017-08-17T10:25:18.818Z,23.76
2017-08-17T10:27:45.321Z,23.74
2017-08-17T10:30:11.777Z,23.84
2017-08-17T10:32:38.133Z,23.89
2017-08-17T10:35:04.649Z,23.91
2017-08-17T10:37:31.084Z,23.87
2017-08-17T10:39:57.505Z,23.96
2017-08-17T10:42:29.311Z,23.96
2017-08-17T10:44:56.504Z,23.99
2017-08-17T10:47:24.503Z,24.08
2017-08-17T10:49:51.108Z,24.18
2017-08-17T10:52:22.311Z,24.20
2017-08-17T10:54:48.772Z,24.12
2017-08-17T10:57:16.180Z,24.21
2017-08-17T10:59:43.055Z,24.35
2017-08-17T11:02:09.544Z,24.32
2017-08-17T11:04:36.031Z,24.31
2017-08-17T11:07:02.422Z,24.35
2017-08-17T11:09:28.911Z,24.43
2017-08-17T11:11:55.352Z,24.48
2017-08-17T11:14:21.803Z,24.38
2017-08-17T11:16:56.960Z,24.52
2017-08-17T11:19:23.739Z,24.53
2017-08-17T11:21:50.208Z,24.64
2017-08-17T11:24:17.106Z,24.56
2017-08-17T11:26:43.618Z,24.84
2017-08-17T11:29:10.807Z,24.86
2017-08-17T11:31:37.538Z,24.86
2017-08-17T11:34:04.690Z,25.07
2017-08-17T11:36:31.095Z,25.03
2017-08-17T11:38:59.107Z,25.05
2017-08-17T11:41:25.789Z,24.90
2017-08-17T11:43:57.521Z,24.95
2017-08-17T11:46:24.100Z,24.87
2017-08-17T11:48:50.375Z,24.86
2017-08-17T11:51:22.143Z,25.02
2017-08-17T11:53:48.525Z,25.04
2017-08-17T11:56:20.238Z,25.05
2017-08-17T11:58:51.919Z,25.12
2017-08-17T12:01:18.677Z,25.07
2017-08-17T12:03:45.493Z,25.20
2017-08-17T12:06:11.939Z,25.21
2017-08-17T12:08:38.684Z,25.20
2017-08-17T12:11:07.448Z,25.20
2017-08-17T12:13:45.157Z,25.18
2017-08-17T12:16:12.635Z,25.29
2017-08-17T12:18:44.410Z,25.21
2017-08-17T12:21:10.863Z,25.30
2017-08-17T12:23:37.284Z,25.35
2017-08-17T12:26:03.720Z,25.37
2017-08-17T12:28:30.106Z,25.33
2017-08-17T12:30:56.499Z,25.31
2017-08-17T12:33:22.892Z,25.24
2017-08-17T12:35:50.113Z,25.21
2017-08-17T12:38:16.545Z,25.22
2017-08-17T12:40:42.968Z,25.25
2017-08-17T12:43:09.368Z,25.33
2017-08-17T12:45:35.785Z,25.30
2017-08-17T12:48:02.215Z,25.03
2017-08-17T12:50:28.592Z,25.08
2017-08-17T12:52:55.003Z,25.14
2017-08-17T12:55:21.386Z,25.13
2017-08-17T12:57:47.783Z,24.98
2017-08-17T13:00:14.194Z,24.87
2017-08-17T13:02:40.611Z,24.97
2017-08-17T13:05:07.031Z,24.99
2017-08-17T13:07:33.433Z,24.91
2017-08-17T13:09:59.856Z,24.89
2017-08-17T13:12:26.248Z,24.84
2017-08-17T13:14:52.656Z,24.84
2017-08-17T13:17:19.048Z,24.81
2017-08-17T13:19:45.484Z,24.62
2017-08-17T13:22:11.919Z,24.66
2017-08-17T13:24:38.306Z,24.71
2017-08-17T13:27:04.707Z,24.62
2017-08-17T13:29:31.113Z,24.58
2017-08-17T13:31:57.511Z,24.57
2017-08-17T13:34:24.142Z,24.50
2017-08-17T13:36:50.498Z,24.23
2017-08-17T13:39:16.914Z,24.13
2017-08-17T13:41:43.348Z,24.00
2017-08-17T13:44:09.797Z,23.96
2017-08-17T13:46:36.375Z,23.88
2017-08-17T13:49:02.813Z,23.81
2017-08-17T13:51:29.224Z,23.91
2017-08-17T13:53:55.654Z,23.82
2017-08-17T13:56:22.104Z,23.81
2017-08-17T13:58:48.973Z,23.82
2017-08-17T14:01:15.423Z,23.76
2017-08-17T14:03:41.918Z,23.82
2017-08-17T14:06:08.470Z,23.75
2017-08-17T14:08:37.149Z,23.67
2017-08-17T14:11:03.659Z,23.63
2017-08-17T14:16:11.179Z,23.75
2017-08-17T14:18:39.059Z,23.73
2017-08-17T14:21:05.602Z,23.71
2017-08-17T14:23:31.996Z,23.70
2017-08-17T14:25:58.439Z,23.63
2017-08-17T14:28:25.041Z,23.61
2017-08-17T14:30:51.542Z,23.62
2017-08-17T14:33:18.002Z,23.63
2017-08-17T14:35:44.486Z,23.72
2017-08-17T14:38:10.921Z,23.90
2017-08-17T14:40:37.403Z,23.89
2017-08-17T14:43:03.832Z,23.83
2017-08-17T14:45:30.300Z,23.89
2017-08-17T14:47:56.857Z,23.85
2017-08-17T14:50:23.369Z,23.83
2017-08-17T14:52:49.793Z,23.84
2017-08-17T14:55:16.192Z,23.77
2017-08-17T14:57:42.620Z,23.78
2017-08-17T15:00:09.128Z,23.73
2017-08-17T15:02:35.681Z,23.75
2017-08-17T15:08:35.374Z,23.80
2017-08-17T15:11:02.028Z,23.86
2017-08-17T15:13:28.568Z,23.94
2017-08-17T15:15:55.069Z,23.87
2017-08-17T15:18:21.928Z,23.90
2017-08-17T15:20:49.310Z,23.92
2017-08-17T15:23:15.835Z,23.93
2017-08-17T15:25:47.304Z,23.76
2017-08-17T15:28:13.816Z,23.68
2017-08-17T15:30:40.289Z,23.60
2017-08-17T15:33:06.730Z,23.54
2017-08-17T15:35:33.151Z,23.60
2017-08-17T15:37:59.577Z,23.50
2017-08-17T15:40:26.083Z,23.43
2017-08-17T15:42:52.477Z,23.40
2017-08-17T15:45:18.865Z,23.41
2017-08-17T15:47:45.305Z,23.37
2017-08-17T15:50:11.729Z,23.37
2017-08-17T15:52:38.148Z,23.32
2017-08-17T15:55:04.568Z,23.31
2017-08-17T15:57:31.046Z,23.27
2017-08-17T15:59:57.444Z,23.19
2017-08-17T16:02:23.874Z,23.19
2017-08-17T16:04:50.289Z,23.16
2017-08-17T16:07:16.689Z,23.07
2017-08-17T16:09:43.126Z,23.05
2017-08-17T16:12:09.579Z,23.03
2017-08-17T16:14:36.034Z,23.02
2017-08-17T16:17:02.421Z,22.95
2017-08-17T16:19:28.871Z,22.97
2017-08-17T16:21:55.287Z,23.03
2017-08-17T16:24:21.694Z,22.98
2017-08-17T16:26:48.096Z,22.94
2017-08-17T16:29:14.567Z,22.93
2017-08-17T16:31:41.061Z,22.95
2017-08-17T16:34:07.490Z,22.92
2017-08-17T16:36:33.975Z,22.86
2017-08-17T16:39:00.860Z,22.88
2017-08-17T16:41:27.307Z,22.88
2017-08-17T16:43:53.836Z,22.91
2017-08-17T16:46:20.272Z,22.90
2017-08-17T16:48:46.701Z,22.88
2017-08-17T16:51:13.142Z,22.85
2017-08-17T16:53:39.555Z,22.86
2017-08-17T16:56:06.021Z,22.79
2017-08-17T16:58:32.531Z,22.79
2017-08-17T17:00:59.137Z,22.71
2017-08-17T17:03:25.718Z,22.81
2017-08-17T17:05:52.308Z,22.74
2017-08-17T17:08:18.792Z,22.75
2017-08-17T17:10:45.385Z,22.80
2017-08-17T17:13:11.889Z,22.73
2017-08-17T17:15:38.363Z,22.70
2017-08-17T17:18:06.010Z,22.77
2017-08-17T17:20:32.485Z,22.76
2017-08-17T17:22:58.989Z,22.72
2017-08-17T17:25:25.485Z,22.72
2017-08-17T17:27:52.945Z,22.64
2017-08-17T17:30:25.543Z,22.66
2017-08-17T17:32:57.157Z,22.62
2017-08-17T17:41:07.909Z,22.60
2017-08-17T17:43:36.780Z,22.59
2017-08-17T17:46:06.504Z,22.59
2017-08-17T17:48:32.954Z,22.55
2017-08-17T17:50:59.357Z,22.58
2017-08-17T17:53:25.775Z,22.54
2017-08-17T17:55:52.542Z,22.56
2017-08-17T17:58:19.542Z,22.48
2017-08-17T18:00:45.969Z,22.47
2017-08-17T18:03:12.381Z,22.55
2017-08-17T18:05:38.817Z,22.56
2017-08-17T18:08:05.247Z,22.56
2017-08-17T18:10:31.781Z,22.59
2017-08-17T18:12:58.170Z,22.53
2017-08-17T18:15:24.550Z,22.54
2017-08-17T18:17:50.948Z,22.47
2017-08-17T18:20:17.355Z,22.40
2017-08-17T18:22:43.754Z,22.32
2017-08-17T18:25:10.116Z,22.33
2017-08-17T18:27:36.476Z,22.29
2017-08-17T18:30:02.872Z,22.31
2017-08-17T18:32:29.270Z,22.24
2017-08-17T18:34:55.631Z,22.22
2017-08-17T18:37:22.002Z,22.31
2017-08-17T18:39:48.388Z,22.36
2017-08-17T18:42:14.784Z,22.37
2017-08-17T18:44:41.160Z,22.32
2017-08-17T18:47:07.550Z,22.28
2017-08-17T18:49:33.936Z,22.27
2017-08-17T18:52:00.894Z,22.33
2017-08-17T18:54:27.281Z,22.29
2017-08-17T18:56:53.675Z,22.26
2017-08-17T18:59:20.082Z,22.19
2017-08-17T19:01:46.541Z,22.19
2017-08-17T19:04:12.963Z,22.21
2017-08-17T19:07:06.175Z,22.23
2017-08-17T19:09:34.852Z,22.08
2017-08-17T19:12:02.241Z,22.13
2017-08-17T19:14:29.233Z,22.19
2017-08-17T19:16:55.793Z,22.19
2017-08-17T19:36:24.908Z,22.04
2017-08-17T19:38:51.470Z,21.95
2017-08-17T19:41:17.838Z,21.98
2017-08-17T19:43:44.241Z,21.87
2017-08-17T19:46:10.727Z,21.83
2017-08-17T19:48:46.528Z,21.92
2017-08-17T20:00:17.164Z,21.77
2017-08-17T20:02:43.796Z,21.79
2017-08-17T20:05:10.342Z,21.71
2017-08-17T20:07:36.855Z,21.78
2017-08-17T20:10:05.606Z,21.80
2017-08-17T20:12:32.434Z,21.76
2017-08-17T20:15:00.123Z,21.83
2017-08-17T20:17:26.883Z,21.66
2017-08-17T20:19:53.701Z,21.70
2017-08-17T20:22:20.333Z,21.80
2017-08-17T20:24:47.212Z,21.80
2017-08-17T20:27:13.877Z,21.80
2017-08-17T20:29:41.510Z,21.76
2017-08-17T20:32:17.282Z,21.79
2017-08-17T20:34:48.877Z,21.70
2017-08-17T20:37:15.268Z,21.58
2017-08-17T20:39:41.714Z,21.60
2017-08-17T20:42:08.160Z,21.58
2017-08-17T20:44:34.559Z,21.64
2017-08-17T20:47:00.946Z,21.62
2017-08-17T20:49:27.360Z,21.53
2017-08-17T20:51:53.765Z,21.48
2017-08-17T20:54:20.184Z,21.49
2017-08-17T20:56:46.601Z,21.44
2017-08-17T20:59:14.071Z,21.38
2017-08-17T21:01:42.966Z,21.43
2017-08-17T21:04:09.486Z,21.47
2017-08-17T21:06:35.871Z,21.34
2017-08-17T21:09:02.345Z,21.28
2017-08-17T21:11:28.709Z,21.37
2017-08-17T21:13:55.095Z,21.27
2017-08-17T21:16:21.453Z,21.32
2017-08-17T21:18:47.863Z,21.31
2017-08-17T21:21:14.205Z,21.27
2017-08-17T21:23:40.623Z,21.20
2017-08-17T21:26:07.026Z,21.21
2017-08-17T21:28:33.389Z,21.31
2017-08-17T21:30:59.789Z,21.28
2017-08-17T21:33:26.184Z,21.30
2017-08-17T21:35:52.551Z,21.31
2017-08-17T21:38:18.929Z,21.20
2017-08-17T21:40:45.311Z,21.20
2017-08-17T21:43:11.673Z,21.17
2017-08-17T21:45:38.060Z,21.22
2017-08-17T21:48:04.495Z,21.22
2017-08-17T21:50:30.885Z,21.29
2017-08-17T21:52:57.244Z,21.22
2017-08-17T21:55:23.610Z,21.12
2017-08-17T21:57:50.450Z,21.18
2017-08-17T22:00:16.877Z,21.23
2017-08-17T22:02:43.263Z,21.23
2017-08-17T22:05:09.666Z,21.21
2017-08-17T22:07:36.049Z,21.17
2017-08-17T22:10:02.414Z,21.23
2017-08-17T22:12:28.769Z,21.19
2017-08-17T22:14:55.133Z,21.22
2017-08-17T22:17:21.489Z,21.22
2017-08-17T22:19:47.836Z,21.18
2017-08-17T22:22:14.205Z,21.05
2017-08-17T22:24:40.602Z,21.19
2017-08-17T22:27:06.991Z,21.18
2017-08-17T22:29:33.364Z,21.21
2017-08-17T22:31:59.754Z,21.23
2017-08-17T22:34:26.127Z,21.17
2017-08-17T22:36:52.502Z,21.13
2017-08-17T22:39:18.939Z,21.04
2017-08-17T22:41:45.341Z,21.02
2017-08-17T22:44:11.732Z,20.90
2017-08-17T22:46:38.115Z,20.99
2017-08-17T22:49:04.471Z,21.05
2017-08-17T22:51:30.867Z,21.02
2017-08-17T22:53:57.232Z,21.07
2017-08-17T22:56:23.592Z,21.05
2017-08-17T22:58:50.011Z,21.02
2017-08-17T23:01:16.444Z,20.98
2017-08-17T23:03:42.813Z,20.81
2017-08-17T23:06:09.361Z,20.85
2017-08-17T23:08:35.781Z,20.73
2017-08-17T23:11:02.202Z,20.85
2017-08-17T23:13:28.614Z,20.79
2017-08-17T23:15:55.083Z,20.90
2017-08-17T23:18:21.577Z,20.88
2017-08-17T23:20:48.021Z,20.79
2017-08-17T23:23:14.469Z,20.73
2017-08-17T23:25:40.970Z,20.69
2017-08-17T23:28:07.420Z,20.73
2017-08-17T23:30:33.844Z,20.61
2017-08-17T23:33:00.350Z,20.66
2017-08-17T23:35:26.801Z,20.67
2017-08-17T23:37:53.187Z,20.65
2017-08-17T23:40:19.578Z,20.65
2017-08-17T23:42:45.974Z,20.51
2017-08-17T23:45:12.414Z,20.60
2017-08-17T23:47:38.813Z,20.61
2017-08-17T23:50:05.271Z,20.53
2017-08-17T23:52:31.677Z,20.63
2017-08-17T23:54:58.081Z,20.55
2017-08-17T23:57:24.450Z,20.51
2017-08-17T23:59:50.829Z,20.46
